Time;durP1;ratioP1;P1;durP2;ratioP2;P2;SDS_P1;SDS_P2;PMS_P1;PMS_P2;Temp;Humidity;BMP_temperature;BMP_pressure;BME280_temperature;BME280_humidity;BME280_pressure;Samples;Min_cycle;Max_cycle;Signal;HPM_P1;HPM_P2
2023/07/17 00:00:22;;;;;;;14.82;3.05;;;17.20;99.90;;;;;;5102234;28;20088;-76
2023/07/17 00:02:47;;;;;;;9.30;2.75;;;17.20;99.90;;;;;;5097779;28;20528;-75
2023/07/17 00:05:13;;;;;;;7.60;2.50;;;17.20;99.90;;;;;;5105491;28;20126;-76
2023/07/17 00:07:40;;;;;;;8.20;3.03;;;17.20;99.90;;;;;;5084716;28;20095;-75
2023/07/17 00:10:08;;;;;;;9.85;2.60;;;17.20;99.90;;;;;;5095441;28;20096;-75
2023/07/17 00:15:09;;;;;;;9.60;2.60;;;17.20;99.90;;;;;;5230271;22;20156;-77
2023/07/17 00:17:35;;;;;;;8.05;2.45;;;17.20;99.90;;;;;;4986374;28;20049;-77
2023/07/17 00:20:03;;;;;;;11.40;2.70;;;17.20;99.90;;;;;;5000604;28;20120;-77
2023/07/17 00:22:28;;;;;;;7.35;3.20;;;17.20;99.90;;;;;;4998734;28;20052;-77
2023/07/17 00:24:54;;;;;;;8.18;2.53;;;17.20;99.90;;;;;;4989035;28;20038;-77
2023/07/17 00:27:20;;;;;;;12.00;2.83;;;17.20;99.90;;;;;;5000750;28;20038;-77
2023/07/17 00:29:46;;;;;;;9.32;3.30;;;17.20;99.90;;;;;;4995714;28;20035;-77
2023/07/17 00:32:12;;;;;;;10.10;2.97;;;17.20;99.90;;;;;;5003855;28;20049;-77
2023/07/17 00:34:41;;;;;;;10.05;2.95;;;17.20;99.90;;;;;;4983604;28;20091;-78
2023/07/17 00:37:07;;;;;;;16.20;3.35;;;17.10;99.90;;;;;;4993470;28;20045;-78
2023/07/17 00:39:33;;;;;;;9.05;2.83;;;17.10;99.90;;;;;;5014359;28;20033;-77
2023/07/17 00:42:01;;;;;;;9.23;2.78;;;17.00;99.90;;;;;;4991613;28;20057;-77
2023/07/17 00:44:27;;;;;;;10.70;2.75;;;17.00;99.90;;;;;;5006751;28;20062;-77
2023/07/17 00:46:54;;;;;;;10.60;3.03;;;16.90;99.90;;;;;;5007652;28;20098;-77
2023/07/17 00:49:22;;;;;;;9.90;2.67;;;16.90;99.90;;;;;;5002007;28;20034;-77
2023/07/17 00:51:48;;;;;;;4.57;2.17;;;16.70;99.90;;;;;;5008614;28;20030;-76
2023/07/17 00:54:14;;;;;;;6.65;2.22;;;16.60;99.90;;;;;;4985486;28;20460;-77
2023/07/17 00:56:42;;;;;;;4.35;1.75;;;16.50;99.90;;;;;;5001813;28;20108;-76
2023/07/17 00:59:08;;;;;;;5.72;1.80;;;16.40;99.90;;;;;;5009865;28;20149;-76
2023/07/17 01:01:34;;;;;;;6.50;1.85;;;16.30;99.90;;;;;;4987070;28;20088;-76
2023/07/17 01:04:02;;;;;;;5.45;2.20;;;16.20;99.90;;;;;;4980380;28;20066;-77
2023/07/17 01:06:28;;;;;;;6.30;2.10;;;16.20;99.90;;;;;;5008380;28;20038;-76
2023/07/17 01:08:54;;;;;;;4.68;1.80;;;16.10;99.90;;;;;;4998316;28;20038;-77
2023/07/17 01:11:19;;;;;;;7.45;2.20;;;16.10;99.90;;;;;;5001702;28;20046;-77
2023/07/17 01:13:46;;;;;;;9.02;2.17;;;16.00;99.90;;;;;;5002407;28;20026;-77
2023/07/17 01:16:13;;;;;;;3.60;2.03;;;16.10;99.90;;;;;;5000004;28;20041;-76
2023/07/17 01:18:39;;;;;;;4.65;1.92;;;16.00;99.90;;;;;;4994433;28;20035;-77
2023/07/17 01:21:07;;;;;;;5.53;2.08;;;16.00;99.90;;;;;;4995952;28;20038;-76
2023/07/17 01:23:33;;;;;;;6.32;2.08;;;16.00;99.90;;;;;;4982015;28;20042;-76
2023/07/17 01:25:59;;;;;;;6.75;2.20;;;16.00;99.90;;;;;;5005239;28;20030;-76
2023/07/17 01:28:25;;;;;;;4.65;1.85;;;16.00;99.90;;;;;;4993257;28;20089;-76
2023/07/17 01:30:51;;;;;;;3.85;2.10;;;16.00;99.90;;;;;;4997093;28;20050;-76
2023/07/17 01:33:17;;;;;;;4.90;2.08;;;16.00;99.90;;;;;;4992464;28;20044;-75
2023/07/17 01:35:44;;;;;;;5.88;2.22;;;16.00;99.90;;;;;;4997741;28;20084;-76
2023/07/17 01:38:10;;;;;;;4.85;1.90;;;16.00;99.90;;;;;;4997992;28;20048;-76
2023/07/17 01:40:36;;;;;;;4.40;2.10;;;16.00;99.90;;;;;;5005128;28;20117;-76
2023/07/17 01:43:01;;;;;;;5.72;2.45;;;16.00;99.90;;;;;;4994602;28;20092;-76
2023/07/17 01:45:27;;;;;;;6.47;2.30;;;16.00;99.90;;;;;;4990610;28;20034;-76
2023/07/17 01:47:53;;;;;;;6.78;2.47;;;16.00;99.90;;;;;;4998945;28;20050;-77
2023/07/17 01:50:18;;;;;;;6.90;2.17;;;16.00;99.90;;;;;;5003709;28;20041;-76
2023/07/17 01:52:44;;;;;;;6.43;2.05;;;16.00;99.90;;;;;;4998207;28;20292;-76
2023/07/17 01:55:09;;;;;;;7.05;2.28;;;16.00;99.90;;;;;;5007172;28;20040;-76
2023/07/17 01:57:35;;;;;;;6.10;2.10;;;15.90;99.90;;;;;;5001178;28;20429;-76
2023/07/17 02:00:00;;;;;;;7.10;2.65;;;15.90;99.90;;;;;;4985203;28;20509;-76
2023/07/17 02:02:26;;;;;;;9.10;2.65;;;15.90;99.90;;;;;;5004013;28;20046;-75
2023/07/17 02:04:51;;;;;;;4.97;2.50;;;15.90;99.90;;;;;;5002290;28;20517;-76
2023/07/17 02:07:17;;;;;;;7.15;2.25;;;15.90;99.90;;;;;;4997415;28;20034;-76
2023/07/17 02:09:42;;;;;;;8.00;2.50;;;15.80;99.90;;;;;;5008604;28;20125;-76
2023/07/17 02:12:08;;;;;;;5.40;2.20;;;15.80;99.90;;;;;;4997184;28;20508;-76
2023/07/17 02:14:34;;;;;;;5.22;2.20;;;15.80;99.90;;;;;;4996108;28;20101;-76
2023/07/17 02:17:00;;;;;;;5.55;2.33;;;15.70;99.90;;;;;;5000152;28;20458;-76
2023/07/17 02:19:26;;;;;;;6.05;2.15;;;15.70;99.90;;;;;;4996278;28;20034;-77
2023/07/17 02:21:51;;;;;;;7.40;2.72;;;15.70;99.90;;;;;;4999755;28;20073;-76
2023/07/17 02:24:17;;;;;;;5.43;2.47;;;15.60;99.90;;;;;;4977950;28;20489;-76
2023/07/17 02:26:42;;;;;;;6.63;2.50;;;15.60;99.90;;;;;;4999667;28;20552;-76
2023/07/17 02:29:08;;;;;;;8.65;2.75;;;15.60;99.90;;;;;;5001194;28;20165;-76
2023/07/17 02:31:34;;;;;;;7.43;2.22;;;15.60;99.90;;;;;;4983090;28;20461;-76
2023/07/17 02:33:59;;;;;;;7.30;2.40;;;15.60;99.90;;;;;;4987742;28;20035;-76
2023/07/17 02:36:25;;;;;;;4.20;2.17;;;15.50;99.90;;;;;;4983741;28;20033;-76
2023/07/17 02:38:50;;;;;;;8.10;2.67;;;15.50;99.90;;;;;;4997385;28;20515;-77
2023/07/17 02:41:16;;;;;;;9.32;2.75;;;15.50;99.90;;;;;;4981895;28;20120;-77
2023/07/17 02:43:42;;;;;;;7.18;3.00;;;15.50;99.90;;;;;;4995231;28;20117;-77
2023/07/17 02:46:07;;;;;;;10.07;3.13;;;15.50;99.90;;;;;;4995212;28;20041;-77
2023/07/17 02:48:33;;;;;;;8.00;3.22;;;15.50;99.90;;;;;;4981073;28;20408;-77
2023/07/17 02:50:58;;;;;;;8.10;3.40;;;15.50;99.90;;;;;;5006849;28;20464;-77
2023/07/17 02:53:25;;;;;;;6.38;2.95;;;15.50;99.90;;;;;;5003429;28;20026;-76
2023/07/17 02:55:51;;;;;;;10.23;3.20;;;15.50;99.90;;;;;;5005279;28;20034;-77
2023/07/17 02:58:17;;;;;;;7.75;3.35;;;15.50;99.90;;;;;;5001736;28;20116;-77
2023/07/17 03:00:43;;;;;;;8.13;3.22;;;15.50;99.90;;;;;;4984981;28;20034;-78
2023/07/17 03:03:09;;;;;;;8.93;3.15;;;15.50;99.90;;;;;;4979082;28;20129;-78
2023/07/17 03:05:35;;;;;;;10.18;3.13;;;15.50;99.90;;;;;;5000502;28;20569;-77
2023/07/17 03:08:00;;;;;;;6.47;3.05;;;15.50;99.90;;;;;;5000629;28;20108;-77
2023/07/17 03:10:27;;;;;;;7.90;2.83;;;15.50;99.90;;;;;;5003850;28;20045;-77
2023/07/17 03:12:52;;;;;;;9.50;3.00;;;15.40;99.90;;;;;;4985446;28;20042;-78
2023/07/17 03:15:18;;;;;;;7.88;2.65;;;15.40;99.90;;;;;;4981699;28;20416;-78
2023/07/17 03:17:44;;;;;;;5.72;2.60;;;15.40;99.90;;;;;;4977523;28;20052;-78
2023/07/17 03:20:10;;;;;;;10.77;2.47;;;15.40;99.90;;;;;;4999305;28;20038;-78
2023/07/17 03:22:36;;;;;;;8.95;2.83;;;15.40;99.90;;;;;;5000824;28;20037;-78
2023/07/17 03:25:05;;;;;;;6.35;2.53;;;15.40;99.90;;;;;;5024237;28;20081;-77
2023/07/17 03:27:30;;;;;;;5.30;2.17;;;15.40;99.90;;;;;;5000017;28;20042;-78
2023/07/17 03:29:56;;;;;;;5.75;2.30;;;15.50;99.90;;;;;;4993578;28;20180;-78
2023/07/17 03:32:21;;;;;;;6.45;2.45;;;15.40;99.90;;;;;;4979364;28;20030;-77
2023/07/17 03:34:47;;;;;;;7.32;2.28;;;15.40;99.90;;;;;;5006536;28;20037;-77
2023/07/17 03:37:12;;;;;;;6.45;2.53;;;15.50;99.90;;;;;;5003996;28;20037;-78
2023/07/17 03:39:38;;;;;;;7.90;2.40;;;15.50;99.90;;;;;;5008528;28;20041;-77
2023/07/17 03:42:10;;;;;;;6.47;2.20;;;15.40;99.90;;;;;;5003291;28;20423;-79
2023/07/17 03:44:38;;;;;;;5.97;2.40;;;15.40;99.90;;;;;;5005941;28;20078;-78
2023/07/17 03:47:05;;;;;;;8.48;2.25;;;15.40;99.90;;;;;;4999107;28;20491;-78
2023/07/17 03:49:30;;;;;;;7.97;3.05;;;15.30;99.90;;;;;;4996072;28;20060;-78
2023/07/17 03:51:58;;;;;;;8.65;2.58;;;15.30;99.90;;;;;;4981441;28;20540;-78
2023/07/17 03:54:23;;;;;;;7.20;2.25;;;15.20;99.90;;;;;;5003972;28;20042;-77
2023/07/17 03:56:49;;;;;;;6.50;2.60;;;15.20;99.90;;;;;;4994331;28;20141;-77
2023/07/17 03:59:14;;;;;;;8.77;2.60;;;15.10;99.90;;;;;;4983966;28;20505;-77
2023/07/17 04:01:40;;;;;;;5.45;2.28;;;15.10;99.90;;;;;;5001937;28;20038;-79
2023/07/17 04:04:06;;;;;;;6.95;2.30;;;15.10;99.90;;;;;;4998513;28;20038;-79
2023/07/17 04:06:32;;;;;;;6.57;2.40;;;15.10;99.90;;;;;;4983445;28;20045;-78
2023/07/17 04:08:57;;;;;;;7.45;2.47;;;15.10;99.90;;;;;;5000700;28;20100;-77
2023/07/17 04:11:24;;;;;;;8.25;3.08;;;15.10;99.90;;;;;;4997809;28;20049;-79
2023/07/17 04:13:52;;;;;;;7.57;2.70;;;15.10;99.90;;;;;;4985026;28;20033;-78
2023/07/17 04:16:20;;;;;;;9.77;3.60;;;15.00;99.90;;;;;;5027996;28;20050;-77
2023/07/17 04:18:46;;;;;;;9.48;2.80;;;15.10;99.90;;;;;;4990107;28;20031;-78
2023/07/17 04:21:11;;;;;;;9.45;2.58;;;15.00;99.90;;;;;;5002875;28;20546;-78
2023/07/17 04:23:37;;;;;;;7.05;2.60;;;15.10;99.90;;;;;;5000622;28;20049;-78
2023/07/17 04:26:02;;;;;;;8.60;2.60;;;15.10;99.90;;;;;;4995858;28;20038;-78
2023/07/17 04:28:28;;;;;;;6.97;2.65;;;15.20;99.90;;;;;;5009893;28;20613;-77
2023/07/17 04:30:53;;;;;;;5.93;2.40;;;15.20;99.90;;;;;;5003841;28;20029;-78
2023/07/17 04:33:19;;;;;;;8.32;2.50;;;15.20;99.90;;;;;;4978867;28;20069;-78
2023/07/17 04:35:44;;;;;;;9.45;2.25;;;15.30;99.90;;;;;;5007491;28;20117;-78
2023/07/17 04:38:10;;;;;;;10.60;2.90;;;15.30;99.90;;;;;;4997073;28;20998;-78
2023/07/17 04:40:35;;;;;;;7.32;2.60;;;15.30;99.90;;;;;;5005196;28;20042;-78
2023/07/17 04:43:01;;;;;;;7.82;2.78;;;15.40;99.90;;;;;;4995852;28;20068;-79
2023/07/17 04:45:27;;;;;;;9.27;2.75;;;15.50;99.90;;;;;;5004522;28;20521;-78
2023/07/17 04:47:53;;;;;;;11.55;3.22;;;15.50;99.90;;;;;;5007001;28;20052;-79
2023/07/17 04:50:21;;;;;;;5.45;2.33;;;15.50;99.90;;;;;;4996554;28;20029;-80
2023/07/17 04:52:46;;;;;;;10.65;2.60;;;15.60;99.90;;;;;;4988048;28;20041;-78
2023/07/17 04:55:12;;;;;;;8.82;2.65;;;15.60;99.90;;;;;;4985749;28;20448;-78
2023/07/17 04:57:37;;;;;;;9.82;2.95;;;15.70;99.90;;;;;;4990090;28;20049;-79
2023/07/17 05:00:05;;;;;;;9.30;2.90;;;15.70;99.90;;;;;;5003560;28;20124;-78
2023/07/17 05:02:30;;;;;;;7.35;2.92;;;15.80;99.90;;;;;;4990464;28;20042;-78
2023/07/17 05:04:56;;;;;;;7.68;2.80;;;15.80;99.90;;;;;;4985721;28;20056;-78
2023/07/17 05:07:22;;;;;;;8.93;2.88;;;15.90;99.90;;;;;;4988388;28;20088;-78
2023/07/17 05:09:47;;;;;;;8.25;2.90;;;16.00;99.90;;;;;;5005035;28;20034;-79
2023/07/17 05:12:13;;;;;;;6.80;2.40;;;16.10;99.90;;;;;;5003740;28;20121;-78
2023/07/17 05:14:38;;;;;;;7.45;2.67;;;16.20;99.90;;;;;;5007259;28;20044;-79
2023/07/17 05:17:04;;;;;;;8.50;2.92;;;16.20;99.90;;;;;;5004380;28;20121;-78
2023/07/17 05:19:29;;;;;;;9.00;2.90;;;16.30;99.90;;;;;;5007410;28;20121;-80
2023/07/17 05:21:55;;;;;;;9.38;3.28;;;16.30;99.90;;;;;;5005803;28;20516;-78
2023/07/17 05:24:21;;;;;;;8.13;2.88;;;16.40;99.90;;;;;;5001004;28;20042;-80
2023/07/17 05:26:47;;;;;;;7.40;2.90;;;16.40;99.90;;;;;;5002176;28;20129;-78
2023/07/17 05:29:12;;;;;;;6.45;2.60;;;16.50;99.90;;;;;;4997742;28;20038;-78
2023/07/17 05:31:38;;;;;;;8.00;2.85;;;16.60;99.90;;;;;;4982019;28;20045;-79
2023/07/17 05:34:03;;;;;;;7.45;2.92;;;16.60;99.90;;;;;;4995868;28;20037;-79
2023/07/17 05:36:29;;;;;;;8.68;3.05;;;16.70;99.90;;;;;;5005285;28;20042;-78
2023/07/17 05:38:54;;;;;;;9.45;3.05;;;16.70;99.90;;;;;;5004286;28;20046;-79
2023/07/17 05:41:20;;;;;;;7.00;2.72;;;16.90;99.90;;;;;;4988555;28;20061;-79
2023/07/17 05:43:45;;;;;;;6.80;2.92;;;17.00;99.90;;;;;;4998862;28;20049;-79
2023/07/17 05:46:11;;;;;;;9.30;2.92;;;17.10;99.90;;;;;;4998987;28;20260;-78
2023/07/17 05:48:37;;;;;;;10.00;3.22;;;17.20;99.90;;;;;;5000017;28;20041;-79
2023/07/17 05:51:03;;;;;;;10.32;3.30;;;17.30;99.90;;;;;;5001898;28;20042;-79
2023/07/17 05:53:28;;;;;;;10.93;3.10;;;17.30;99.90;;;;;;5007109;28;20037;-78
2023/07/17 05:55:54;;;;;;;7.45;3.20;;;17.30;99.90;;;;;;5005488;28;20034;-80
2023/07/17 05:58:20;;;;;;;7.97;3.08;;;17.30;99.90;;;;;;5003742;28;20030;-78
2023/07/17 06:00:46;;;;;;;9.73;3.67;;;17.40;99.90;;;;;;4984666;28;20034;-80
2023/07/17 06:03:11;;;;;;;9.75;3.70;;;17.40;99.90;;;;;;4995760;28;20074;-78
2023/07/17 06:05:40;;;;;;;10.07;3.47;;;17.50;99.90;;;;;;4994391;28;20070;-78
2023/07/17 06:08:08;;;;;;;10.43;3.10;;;17.60;99.90;;;;;;5001171;28;20069;-79
2023/07/17 06:10:34;;;;;;;11.52;3.47;;;17.70;99.90;;;;;;4985606;28;20038;-77
2023/07/17 06:12:59;;;;;;;11.38;3.97;;;17.70;99.90;;;;;;4993169;28;20583;-79
2023/07/17 06:15:26;;;;;;;8.15;3.47;;;17.80;99.90;;;;;;4980932;28;20056;-78
2023/07/17 06:17:52;;;;;;;10.68;4.00;;;17.90;99.90;;;;;;4993779;28;20042;-78
2023/07/17 06:20:18;;;;;;;9.82;3.60;;;17.90;99.90;;;;;;4996795;28;20452;-80
2023/07/17 06:22:43;;;;;;;10.25;3.63;;;18.00;99.90;;;;;;4999379;28;20034;-79
2023/07/17 06:25:09;;;;;;;9.98;3.45;;;18.00;99.90;;;;;;5001051;28;20041;-79
2023/07/17 06:27:34;;;;;;;10.73;3.70;;;18.10;99.90;;;;;;5002173;28;20046;-80
2023/07/17 06:30:00;;;;;;;8.63;3.50;;;18.30;99.90;;;;;;5001027;28;20042;-79
2023/07/17 06:32:26;;;;;;;8.98;4.00;;;18.40;99.90;;;;;;4989798;28;20038;-78
2023/07/17 06:34:52;;;;;;;8.57;3.55;;;18.40;99.90;;;;;;4974273;28;20111;-79
2023/07/17 06:37:17;;;;;;;9.48;3.85;;;18.40;99.90;;;;;;4998099;28;20046;-78
2023/07/17 06:39:43;;;;;;;10.60;3.80;;;18.50;99.90;;;;;;4998553;28;20030;-78
2023/07/17 06:42:10;;;;;;;11.30;3.42;;;18.40;99.90;;;;;;5006043;28;20034;-80
2023/07/17 06:44:35;;;;;;;10.02;3.95;;;18.50;99.90;;;;;;5002148;28;20519;-80
2023/07/17 06:47:01;;;;;;;7.80;3.63;;;18.60;99.90;;;;;;4999490;28;20042;-80
2023/07/17 06:49:29;;;;;;;10.57;4.10;;;18.60;99.90;;;;;;4999288;28;20043;-78
2023/07/17 06:51:55;;;;;;;11.55;3.80;;;18.50;99.90;;;;;;4984837;28;20512;-80
2023/07/17 06:54:20;;;;;;;10.30;4.50;;;18.70;99.90;;;;;;4998252;28;20042;-80
2023/07/17 06:56:46;;;;;;;11.38;4.38;;;18.80;99.90;;;;;;4977853;28;20043;-79
2023/07/17 06:59:11;;;;;;;6.72;3.50;;;19.10;99.90;;;;;;4976421;28;20125;-80
2023/07/17 07:01:37;;;;;;;11.40;4.13;;;19.40;99.90;;;;;;4976542;28;20114;-79
2023/07/17 07:04:02;;;;;;;7.40;3.60;;;19.50;99.90;;;;;;4975176;28;20555;-80
2023/07/17 07:06:28;;;;;;;8.07;4.05;;;19.50;99.90;;;;;;4977667;28;20042;-80
2023/07/17 07:08:53;;;;;;;10.55;4.10;;;19.40;99.90;;;;;;4995011;28;20050;-80
2023/07/17 07:11:19;;;;;;;10.52;4.72;;;19.10;99.90;;;;;;5012197;28;20050;-80
2023/07/17 07:13:45;;;;;;;11.63;4.65;;;18.80;99.90;;;;;;5010496;28;20034;-79
2023/07/17 07:16:11;;;;;;;7.90;3.08;;;18.60;99.90;;;;;;5009907;28;20080;-78
2023/07/17 07:18:37;;;;;;;7.15;3.00;;;18.20;99.90;;;;;;5010276;28;20077;-77
2023/07/17 07:21:03;;;;;;;9.45;3.70;;;17.70;99.90;;;;;;5010560;28;20053;-77
2023/07/17 07:23:28;;;;;;;9.60;3.00;;;17.30;99.90;;;;;;5010177;28;20092;-77
2023/07/17 07:25:54;;;;;;;8.30;2.95;;;16.80;99.90;;;;;;5010383;28;20124;-77
2023/07/17 07:28:21;;;;;;;7.40;2.95;;;16.50;99.90;;;;;;4993952;28;20046;-76
2023/07/17 07:30:47;;;;;;;5.72;2.40;;;16.30;99.90;;;;;;5010230;28;20041;-76
2023/07/17 07:33:13;;;;;;;7.82;3.47;;;16.30;99.90;;;;;;4993462;28;20045;-77
2023/07/17 07:35:42;;;;;;;6.90;3.05;;;16.20;99.90;;;;;;5010509;28;20048;-77
2023/07/17 07:38:07;;;;;;;7.40;3.20;;;16.10;99.90;;;;;;5010292;28;20045;-77
2023/07/17 07:40:33;;;;;;;7.60;3.40;;;16.10;99.90;;;;;;4994024;28;20472;-77
2023/07/17 07:42:58;;;;;;;11.07;3.67;;;16.10;99.90;;;;;;4983174;28;20049;-77
2023/07/17 07:45:24;;;;;;;6.97;3.55;;;16.20;99.90;;;;;;4992850;28;20042;-77
2023/07/17 07:47:49;;;;;;;8.18;3.78;;;16.20;99.90;;;;;;5003798;28;20038;-77
2023/07/17 07:50:15;;;;;;;9.93;4.03;;;16.20;99.90;;;;;;4983239;28;20046;-77
2023/07/17 07:52:40;;;;;;;9.38;3.90;;;16.30;99.90;;;;;;5002929;28;20397;-77
2023/07/17 07:55:06;;;;;;;9.60;3.35;;;16.40;99.90;;;;;;4997925;28;20414;-77
2023/07/17 07:57:32;;;;;;;10.52;3.80;;;16.70;99.90;;;;;;4997883;28;20126;-77
2023/07/17 07:59:58;;;;;;;10.77;4.18;;;16.80;99.90;;;;;;5006264;28;20357;-77
2023/07/17 08:02:24;;;;;;;10.88;3.90;;;16.90;99.90;;;;;;4998577;28;20632;-77
2023/07/17 08:04:50;;;;;;;11.55;4.18;;;17.10;99.90;;;;;;4978751;28;20092;-77
2023/07/17 08:07:15;;;;;;;9.90;4.70;;;17.10;99.90;;;;;;5008780;28;20117;-77
2023/07/17 08:09:41;;;;;;;10.05;4.30;;;17.30;99.90;;;;;;5005317;28;20176;-77
2023/07/17 08:12:07;;;;;;;13.00;4.18;;;17.50;99.90;;;;;;5002926;28;20056;-78
2023/07/17 08:14:32;;;;;;;11.02;4.97;;;17.70;99.90;;;;;;4982566;28;20092;-77
2023/07/17 08:16:58;;;;;;;9.13;4.53;;;17.90;99.90;;;;;;4988329;28;20141;-77
2023/07/17 08:19:24;;;;;;;10.07;4.20;;;18.20;99.90;;;;;;4993257;28;20639;-78
2023/07/17 08:21:49;;;;;;;10.43;4.53;;;18.40;99.90;;;;;;4980613;28;20416;-78
2023/07/17 08:24:15;;;;;;;8.77;4.00;;;18.50;99.90;;;;;;4999553;28;20045;-78
2023/07/17 08:26:41;;;;;;;11.00;4.10;;;18.70;99.90;;;;;;5006680;28;20056;-78
2023/07/17 08:29:10;;;;;;;11.30;4.53;;;18.80;99.90;;;;;;4997002;28;20043;-79
2023/07/17 08:31:35;;;;;;;10.32;4.00;;;18.90;99.90;;;;;;4995057;28;20046;-78
2023/07/17 08:34:03;;;;;;;10.70;3.40;;;19.00;99.90;;;;;;4996381;28;20037;-79
2023/07/17 08:36:29;;;;;;;8.95;3.95;;;19.00;99.90;;;;;;4997544;28;20034;-78
2023/07/17 08:38:55;;;;;;;9.02;3.72;;;19.20;99.90;;;;;;5007880;28;20040;-76
2023/07/17 08:41:24;;;;;;;9.75;3.75;;;19.30;99.90;;;;;;4998457;28;20038;-76
2023/07/17 08:43:51;;;;;;;8.65;3.60;;;19.50;99.90;;;;;;5000830;28;20100;-76
2023/07/17 08:46:17;;;;;;;7.80;4.18;;;19.80;99.90;;;;;;4997631;28;20041;-77
2023/07/17 08:48:43;;;;;;;7.07;3.60;;;19.90;99.90;;;;;;4992109;28;20117;-78
2023/07/17 08:51:10;;;;;;;9.13;3.47;;;20.10;99.90;;;;;;4997985;28;20057;-76
2023/07/17 08:53:38;;;;;;;8.82;3.63;;;20.20;99.90;;;;;;4992857;28;20113;-77
2023/07/17 08:56:04;;;;;;;6.88;3.47;;;20.40;99.90;;;;;;4996657;28;20544;-78
2023/07/17 08:58:30;;;;;;;11.45;3.35;;;20.50;99.90;;;;;;4987221;28;20157;-78
2023/07/17 09:00:57;;;;;;;6.43;3.53;;;20.50;99.90;;;;;;4989275;28;20056;-77
2023/07/17 09:03:23;;;;;;;9.43;3.63;;;20.60;99.90;;;;;;4997490;28;20647;-77
2023/07/17 09:05:49;;;;;;;7.63;2.80;;;20.70;99.90;;;;;;5000073;28;20121;-77
2023/07/17 09:08:16;;;;;;;8.48;3.10;;;20.70;99.90;;;;;;4999439;28;20137;-78
2023/07/17 09:10:42;;;;;;;7.32;2.72;;;20.60;99.90;;;;;;5005155;28;20129;-78
2023/07/17 09:13:08;;;;;;;6.93;2.80;;;20.50;99.90;;;;;;4993308;28;20049;-78
2023/07/17 10:43:16;;;;;;;7.25;2.38;;;21.50;99.90;;;;;;5164646;27;20109;-78
2023/07/17 14:37:58;;;;;;;7.22;2.40;;;22.30;99.10;;;;;;5129178;27;20311;-76
2023/07/17 14:40:24;;;;;;;4.65;2.28;;;22.90;99.00;;;;;;5109151;28;20050;-76
2023/07/17 14:42:52;;;;;;;4.60;1.90;;;23.70;98.20;;;;;;5109568;28;20035;-76
2023/07/17 14:45:17;;;;;;;4.80;1.90;;;23.90;97.50;;;;;;5111589;28;20502;-77
2023/07/17 14:47:44;;;;;;;5.35;1.98;;;23.80;97.60;;;;;;5100213;28;20036;-78
2023/07/17 14:50:10;;;;;;;5.40;1.98;;;23.50;97.50;;;;;;5100117;28;20107;-76
2023/07/17 14:52:35;;;;;;;6.70;2.30;;;23.30;97.50;;;;;;5122341;28;20047;-77
2023/07/17 14:55:01;;;;;;;5.93;2.55;;;23.00;97.90;;;;;;5121785;28;20044;-74
2023/07/17 14:57:26;;;;;;;5.85;2.58;;;22.90;98.20;;;;;;5101022;28;20054;-76
2023/07/17 14:59:52;;;;;;;6.25;2.20;;;22.80;98.60;;;;;;5106082;28;20039;-75
2023/07/17 15:02:20;;;;;;;6.43;2.30;;;22.60;98.70;;;;;;5109380;28;20036;-77
2023/07/17 15:04:46;;;;;;;6.00;2.30;;;22.70;99.10;;;;;;5113805;28;20047;-75
2023/07/17 15:07:11;;;;;;;5.25;2.20;;;23.00;98.60;;;;;;5111914;28;20044;-74
2023/07/17 15:09:37;;;;;;;5.40;2.28;;;22.60;98.40;;;;;;5111562;28;20333;-76
2023/07/17 15:12:03;;;;;;;5.05;2.22;;;22.20;98.50;;;;;;5113164;28;20099;-76
2023/07/17 15:14:28;;;;;;;4.70;1.90;;;22.00;99.00;;;;;;5117704;28;20044;-75
2023/07/17 15:16:54;;;;;;;5.32;2.13;;;21.80;99.20;;;;;;5122100;28;20544;-77
2023/07/17 15:19:20;;;;;;;5.22;2.33;;;21.80;99.20;;;;;;5125990;28;20058;-79
2023/07/17 15:21:46;;;;;;;4.95;2.30;;;22.10;99.30;;;;;;5104935;28;20071;-78
2023/07/17 15:24:11;;;;;;;4.68;2.38;;;22.50;99.40;;;;;;5114866;28;20036;-75
2023/07/17 15:26:37;;;;;;;7.45;2.38;;;22.60;99.10;;;;;;5108983;28;20401;-76
2023/07/17 15:29:02;;;;;;;3.88;2.28;;;22.70;99.10;;;;;;5110798;28;20036;-76
2023/07/17 15:31:28;;;;;;;5.75;2.55;;;23.00;99.10;;;;;;5092486;28;20074;-76
2023/07/17 15:33:55;;;;;;;5.65;2.33;;;23.30;98.80;;;;;;5103470;28;20040;-76
2023/07/17 15:36:21;;;;;;;5.35;2.33;;;24.50;98.50;;;;;;5090599;28;20086;-77
2023/07/17 15:38:47;;;;;;;6.40;2.15;;;25.00;97.90;;;;;;5107644;28;20042;-76
2023/07/17 15:41:13;;;;;;;5.65;2.15;;;25.20;97.60;;;;;;5112867;28;20474;-77
2023/07/17 15:43:39;;;;;;;7.15;2.60;;;24.90;97.80;;;;;;5114130;28;20036;-76
2023/07/17 15:46:04;;;;;;;7.55;2.20;;;24.30;98.00;;;;;;5092512;28;20069;-77
2023/07/17 15:48:30;;;;;;;4.47;2.45;;;23.50;97.90;;;;;;5095042;28;20064;-76
2023/07/17 15:50:55;;;;;;;6.65;2.50;;;22.90;98.20;;;;;;5090007;28;20054;-77
2023/07/17 15:53:21;;;;;;;5.57;2.53;;;22.50;98.70;;;;;;5097085;28;20040;-77
2023/07/17 15:55:46;;;;;;;7.15;2.22;;;22.70;99.10;;;;;;5076730;28;20039;-80
2023/07/17 15:58:12;;;;;;;7.55;2.58;;;23.60;98.50;;;;;;5085051;28;20040;-80
2023/07/17 16:00:37;;;;;;;5.25;2.20;;;24.70;98.30;;;;;;5094357;28;20075;-77
2023/07/17 16:03:03;;;;;;;6.20;2.22;;;25.90;97.60;;;;;;5095896;28;20040;-78
2023/07/17 16:05:29;;;;;;;6.20;2.00;;;27.00;96.90;;;;;;5093399;28;20028;-76
2023/07/17 16:07:54;;;;;;;7.75;2.60;;;28.10;96.20;;;;;;5092752;28;20518;-77
2023/07/17 16:10:20;;;;;;;5.80;2.30;;;27.60;95.20;;;;;;5095162;28;20054;-76
2023/07/17 16:12:45;;;;;;;5.10;2.25;;;27.60;95.30;;;;;;5098472;28;20127;-76
2023/07/17 16:15:11;;;;;;;6.22;2.50;;;28.00;95.40;;;;;;5075104;28;20044;-76
2023/07/17 16:17:36;;;;;;;4.03;2.13;;;27.10;94.70;;;;;;5076980;28;20076;-78
2023/07/17 16:20:02;;;;;;;5.30;2.33;;;26.30;94.90;;;;;;5092412;28;20066;-75
2023/07/17 16:22:28;;;;;;;5.72;2.70;;;25.50;95.50;;;;;;5093311;28;20036;-77
2023/07/17 16:24:54;;;;;;;6.35;2.20;;;25.10;95.90;;;;;;5091317;28;20040;-76
2023/07/17 16:27:19;;;;;;;6.05;2.40;;;25.60;96.20;;;;;;5079402;28;20039;-77
2023/07/17 16:29:45;;;;;;;6.43;2.50;;;25.40;95.90;;;;;;5058873;28;20048;-77
2023/07/17 16:32:11;;;;;;;5.00;2.28;;;24.90;96.10;;;;;;5083152;28;20410;-77
2023/07/17 16:34:37;;;;;;;6.30;2.50;;;24.50;95.80;;;;;;5057653;28;20029;-76
2023/07/17 16:37:03;;;;;;;5.60;2.60;;;24.50;96.30;;;;;;5081475;28;20101;-75
2023/07/17 16:39:28;;;;;;;8.82;2.78;;;25.30;96.50;;;;;;5083881;28;20040;-77
2023/07/17 16:41:54;;;;;;;11.15;2.67;;;26.50;96.10;;;;;;5079984;28;20575;-78
2023/07/17 16:44:20;;;;;;;4.70;1.92;;;27.70;95.40;;;;;;5081993;28;20032;-77
2023/07/17 16:46:48;;;;;;;3.88;2.20;;;27.30;94.00;;;;;;5077779;28;20036;-77
2023/07/17 16:49:13;;;;;;;5.25;2.40;;;27.30;94.50;;;;;;5079996;28;20114;-78
2023/07/17 16:51:39;;;;;;;5.65;2.20;;;27.00;94.10;;;;;;5056142;28;20041;-77
2023/07/17 16:54:05;;;;;;;4.78;2.15;;;27.90;94.40;;;;;;5077275;28;20045;-76
2023/07/17 16:56:30;;;;;;;5.05;1.85;;;27.90;93.00;;;;;;5082378;28;20090;-76
2023/07/17 16:58:56;;;;;;;3.63;1.90;;;27.90;93.00;;;;;;5064523;28;20041;-77
2023/07/17 17:01:21;;;;;;;5.63;2.15;;;27.40;92.70;;;;;;5082384;28;20036;-76
2023/07/17 17:03:47;;;;;;;6.97;2.50;;;27.30;93.10;;;;;;5076193;28;20036;-77
2023/07/17 17:06:14;;;;;;;4.13;2.00;;;27.90;93.20;;;;;;5080407;28;20049;-77
2023/07/17 17:08:41;;;;;;;3.80;2.10;;;28.40;93.30;;;;;;5060487;28;20032;-75
2023/07/17 17:11:06;;;;;;;5.90;2.03;;;28.80;92.70;;;;;;5078320;28;20044;-76
2023/07/17 17:13:32;;;;;;;5.25;2.20;;;28.90;92.50;;;;;;5053630;28;20124;-76
2023/07/17 17:15:58;;;;;;;4.30;2.00;;;28.60;92.70;;;;;;5064892;28;20036;-77
2023/07/17 17:18:25;;;;;;;5.85;2.38;;;27.70;92.50;;;;;;5081477;28;20039;-76
2023/07/17 17:20:51;;;;;;;5.05;2.05;;;27.20;92.60;;;;;;5076186;28;20044;-76
2023/07/17 17:23:16;;;;;;;5.38;2.05;;;27.40;93.20;;;;;;5063084;28;20058;-76
2023/07/17 17:25:42;;;;;;;5.43;1.80;;;27.80;93.10;;;;;;5075630;28;20029;-77
2023/07/17 17:28:08;;;;;;;5.22;2.25;;;28.30;92.40;;;;;;5086503;28;20068;-76
2023/07/17 17:30:34;;;;;;;5.85;2.05;;;28.30;92.20;;;;;;5074821;28;20040;-77
2023/07/17 17:33:00;;;;;;;4.18;1.85;;;28.60;92.10;;;;;;5057810;28;20032;-77
2023/07/17 17:35:25;;;;;;;4.18;2.00;;;28.70;91.90;;;;;;5066951;28;20058;-76
2023/07/17 17:37:51;;;;;;;3.67;1.63;;;28.90;91.40;;;;;;5058208;28;20415;-77
2023/07/17 17:40:16;;;;;;;4.60;1.83;;;29.20;91.40;;;;;;5078224;28;20054;-77
2023/07/17 17:42:42;;;;;;;4.50;2.05;;;29.70;91.00;;;;;;5084850;28;20049;-76
2023/07/17 17:45:09;;;;;;;3.45;2.00;;;29.70;90.80;;;;;;5079819;28;20087;-77
2023/07/17 17:47:36;;;;;;;4.18;1.65;;;29.40;90.70;;;;;;5078987;28;20111;-76
2023/07/17 17:50:01;;;;;;;5.07;2.10;;;29.40;91.00;;;;;;5083397;28;20047;-76
2023/07/17 17:52:27;;;;;;;4.35;1.98;;;29.60;90.80;;;;;;5084440;28;20403;-77
2023/07/17 17:54:52;;;;;;;5.75;2.10;;;29.70;90.70;;;;;;5064527;28;20499;-76
2023/07/17 17:57:18;;;;;;;3.88;1.65;;;29.70;90.60;;;;;;5078637;28;20102;-76
2023/07/17 17:59:44;;;;;;;4.45;2.15;;;29.10;90.00;;;;;;5089701;28;20391;-75